Time;durP1;ratioP1;P1;durP2;ratioP2;P2;SDS_P1;SDS_P2;PMS_P1;PMS_P2;Temp;Humidity;BMP_temperature;BMP_pressure;BME280_temperature;BME280_humidity;BME280_pressure;Samples;Min_cycle;Max_cycle;Signal;HPM_P1;HPM_P2
2023/12/22 00:02:41;;;;;;;4.22;0.30;;;;;;;4.97;100.00;98427.16;12183244;19;20906;-82
2023/12/22 00:06:43;;;;;;;0.32;0.30;;;;;;;4.96;100.00;98425.47;12203038;19;20006;-82
2023/12/22 00:10:45;;;;;;;0.20;0.20;;;;;;;5.00;100.00;98434.84;12202712;19;20022;-81
2023/12/22 00:14:47;;;;;;;1.63;0.25;;;;;;;4.99;100.00;98427.72;12178509;19;20458;-83
2023/12/22 00:18:48;;;;;;;0.35;0.35;;;;;;;4.96;100.00;98441.84;12199426;19;20027;-84
2023/12/22 00:22:50;;;;;;;0.98;0.25;;;;;;;4.95;100.00;98448.41;12195669;19;20450;-84
2023/12/22 00:26:52;;;;;;;0.20;0.20;;;;;;;4.89;100.00;98443.09;12175085;19;20003;-83
2023/12/22 00:30:54;;;;;;;0.30;0.20;;;;;;;4.94;100.00;98449.47;12199646;19;20006;-83
2023/12/22 00:34:58;;;;;;;1.85;0.30;;;;;;;4.90;100.00;98451.03;12196749;19;20078;-84
2023/12/22 00:39:00;;;;;;;0.28;0.22;;;;;;;4.76;100.00;98445.06;12179088;19;19999;-82
2023/12/22 00:43:01;;;;;;;0.68;0.20;;;;;;;4.68;100.00;98445.47;12201517;19;20085;-83
2023/12/22 00:47:03;;;;;;;1.60;0.30;;;;;;;4.66;100.00;98423.03;12203098;19;20017;-83
2023/12/22 00:51:07;;;;;;;1.20;0.37;;;;;;;4.71;100.00;98408.69;12182302;19;20010;-83
2023/12/22 00:55:09;;;;;;;0.40;0.40;;;;;;;4.81;100.00;98411.56;12202993;19;20002;-84
2023/12/22 00:59:11;;;;;;;0.88;0.30;;;;;;;4.92;100.00;98404.41;12211124;19;20011;-82
2023/12/22 01:03:13;;;;;;;2.23;0.77;;;;;;;5.00;100.00;98451.22;12191393;19;20037;-83
2023/12/22 01:07:25;;;;;;;1.30;0.30;;;;;;;4.98;100.00;98447.91;12235756;19;20025;-82
2023/12/22 01:11:27;;;;;;;1.52;0.32;;;;;;;5.08;100.00;98443.69;12218432;19;20022;-86
2023/12/22 01:15:31;;;;;;;1.80;0.52;;;;;;;5.11;100.00;98435.00;12206091;19;20018;-83
2023/12/22 01:19:32;;;;;;;0.63;0.32;;;;;;;5.13;100.00;98452.78;12201340;19;20014;-80
2023/12/22 01:23:34;;;;;;;1.52;0.40;;;;;;;5.09;100.00;98446.19;12177933;19;20018;-82
2023/12/22 01:27:37;;;;;;;1.75;0.60;;;;;;;5.12;100.00;98474.91;12201939;19;20010;-82
2023/12/22 01:31:38;;;;;;;2.13;0.43;;;;;;;5.12;100.00;98475.72;12203714;19;20015;-81
2023/12/22 01:35:40;;;;;;;0.65;0.30;;;;;;;5.15;100.00;98458.03;12185915;19;20349;-81
2023/12/22 01:39:42;;;;;;;1.25;0.40;;;;;;;5.15;100.00;98472.50;12211539;19;20460;-83
2023/12/22 01:43:44;;;;;;;1.92;0.50;;;;;;;5.17;100.00;98485.88;12200337;19;20019;-82
2023/12/22 01:47:47;;;;;;;3.67;0.52;;;;;;;5.20;100.00;98474.47;12186994;19;20470;-80
2023/12/22 01:51:49;;;;;;;0.95;0.40;;;;;;;5.20;100.00;98512.69;12207553;19;20007;-80
2023/12/22 01:55:52;;;;;;;1.25;0.30;;;;;;;5.22;100.00;98537.88;12212792;19;20383;-82
2023/12/22 01:59:56;;;;;;;0.75;0.40;;;;;;;5.24;100.00;98528.34;12189412;19;20010;-82
2023/12/22 02:03:59;;;;;;;1.33;0.40;;;;;;;5.22;100.00;98524.22;12211544;19;20018;-85
2023/12/22 02:08:01;;;;;;;;;;;;;;;5.21;100.00;98523.41;12226959;19;20010;-82
2023/12/22 02:12:03;;;;;;;1.08;0.40;;;;;;;5.24;100.00;98524.81;12203794;19;19911;-81
2023/12/22 02:16:15;;;;;;;1.17;0.53;;;;;;;5.26;100.00;98522.63;12223189;19;20802;-82
2023/12/22 02:20:18;;;;;;;1.43;0.50;;;;;;;5.27;100.00;98507.09;12219320;19;20010;-83
2023/12/22 02:24:19;;;;;;;2.50;0.50;;;;;;;5.33;100.00;98504.19;12182940;19;20612;-84
2023/12/22 02:28:23;;;;;;;2.70;0.45;;;;;;;5.33;100.00;98506.94;12210235;19;20006;-84
2023/12/22 02:32:30;;;;;;;3.47;0.52;;;;;;;5.37;100.00;98499.88;12185491;19;20053;-82
2023/12/22 02:36:36;;;;;;;1.20;0.38;;;;;;;5.44;100.00;98488.78;12205433;19;20361;-82
2023/12/22 02:40:39;;;;;;;7.30;0.70;;;;;;;5.45;100.00;98485.81;12210078;19;20014;-84
2023/12/22 02:44:41;;;;;;;;;;;;;;;5.50;100.00;98509.66;12181386;19;20007;-83
2023/12/22 02:48:42;;;;;;;0.57;0.40;;;;;;;5.49;100.00;98500.63;12202301;19;19917;-83
2023/12/22 02:52:45;;;;;;;1.77;0.50;;;;;;;5.54;100.00;98494.44;12205665;19;20006;-81
2023/12/22 02:56:47;;;;;;;2.20;0.45;;;;;;;5.56;100.00;98508.69;12177392;19;20015;-83
2023/12/22 03:00:49;;;;;;;2.10;0.50;;;;;;;5.57;100.00;98490.38;12210479;19;20034;-82
2023/12/22 03:04:51;;;;;;;4.18;1.05;;;;;;;5.59;100.00;98491.78;12206937;19;20014;-84
2023/12/22 03:08:54;;;;;;;0.87;0.37;;;;;;;5.58;100.00;98501.03;12179545;19;20043;-83
2023/12/22 03:12:56;;;;;;;1.67;0.40;;;;;;;5.63;100.00;98519.44;12207367;19;20092;-82
2023/12/22 03:16:57;;;;;;;0.40;0.30;;;;;;;5.64;100.00;98512.88;12215619;19;20010;-83
2023/12/22 03:21:00;;;;;;;2.07;0.50;;;;;;;5.62;100.00;98504.94;12189420;19;20070;-84
2023/12/22 03:25:02;;;;;;;2.08;0.88;;;;;;;5.56;100.00;98494.16;12209871;19;20006;-84
2023/12/22 03:29:04;;;;;;;2.05;0.65;;;;;;;5.53;100.00;98481.81;12212476;19;20469;-84
2023/12/22 03:33:06;;;;;;;2.00;0.50;;;;;;;5.55;100.00;98473.41;12191973;19;20050;-83
2023/12/22 03:37:08;;;;;;;3.13;0.65;;;;;;;5.63;100.00;98492.94;12214032;19;19998;-83
2023/12/22 03:41:10;;;;;;;3.47;0.88;;;;;;;5.66;100.00;98488.88;12214100;19;20002;-83
2023/12/22 03:45:12;;;;;;;1.85;0.50;;;;;;;5.61;100.00;98489.59;12190474;19;20003;-82
2023/12/22 03:49:13;;;;;;;1.23;0.55;;;;;;;5.55;100.00;98512.47;12203408;19;20018;-82
2023/12/22 03:53:16;;;;;;;1.98;1.00;;;;;;;5.62;100.00;98502.22;12203739;19;20032;-81
2023/12/22 03:57:18;;;;;;;4.25;0.63;;;;;;;5.81;100.00;98515.59;12177824;19;20017;-83
2023/12/22 04:01:20;;;;;;;0.55;0.43;;;;;;;5.78;100.00;98527.88;12202296;19;20007;-83
2023/12/22 04:05:21;;;;;;;4.73;1.07;;;;;;;5.84;100.00;98515.94;12183602;19;20006;-84
2023/12/22 04:09:23;;;;;;;2.25;0.60;;;;;;;5.76;100.00;98508.16;12147063;19;20010;-84
2023/12/22 04:13:25;;;;;;;2.40;0.95;;;;;;;5.72;100.00;98501.53;12221938;19;20006;-82
2023/12/22 04:17:27;;;;;;;2.83;0.80;;;;;;;5.73;100.00;98516.84;12180116;19;20031;-81
2023/12/22 04:21:28;;;;;;;5.00;1.17;;;;;;;5.74;100.00;98529.47;12197544;19;20723;-84
2023/12/22 04:25:30;;;;;;;2.28;0.55;;;;;;;5.74;100.00;98520.41;12198436;19;20478;-80
2023/12/22 04:29:32;;;;;;;2.58;0.68;;;;;;;5.75;100.00;98519.34;12178999;19;20546;-82
2023/12/22 04:33:34;;;;;;;3.78;0.60;;;;;;;5.80;100.00;98533.06;12213568;19;20019;-82
2023/12/22 04:37:36;;;;;;;4.10;1.10;;;;;;;5.83;100.00;98529.84;12206015;19;20018;-82
2023/12/22 04:41:38;;;;;;;2.80;0.60;;;;;;;5.81;100.00;98532.84;12186307;19;20028;-82
2023/12/22 04:45:40;;;;;;;2.42;0.73;;;;;;;5.87;100.00;98534.56;12205639;19;20006;-82
2023/12/22 04:49:42;;;;;;;1.85;0.77;;;;;;;5.92;100.00;98531.09;12202375;19;20490;-80
2023/12/22 04:53:44;;;;;;;2.65;0.63;;;;;;;5.92;100.00;98529.19;12181259;19;19999;-80
2023/12/22 04:57:46;;;;;;;5.15;0.73;;;;;;;5.94;100.00;98523.47;12200645;19;20019;-80
2023/12/22 05:01:48;;;;;;;1.80;0.40;;;;;;;5.98;100.00;98532.00;12205856;19;20002;-80
2023/12/22 05:05:49;;;;;;;3.30;0.43;;;;;;;5.96;100.00;98521.31;12183166;19;20050;-80
2023/12/22 05:09:52;;;;;;;0.43;0.43;;;;;;;5.99;100.00;98514.53;12209214;19;20006;-81
2023/12/22 05:13:54;;;;;;;0.63;0.50;;;;;;;5.97;100.00;98544.84;12208466;19;20003;-81
2023/12/22 05:17:56;;;;;;;3.95;0.43;;;;;;;6.03;100.00;98557.50;12190759;19;20010;-81
2023/12/22 05:21:58;;;;;;;1.13;0.45;;;;;;;6.07;100.00;98557.88;12210024;19;20058;-82
2023/12/22 05:25:59;;;;;;;2.88;0.90;;;;;;;6.01;100.00;98567.03;12211972;19;20015;-80
2023/12/22 05:30:03;;;;;;;4.00;0.70;;;;;;;6.13;100.00;98589.69;12192256;19;20083;-82
2023/12/22 05:34:05;;;;;;;7.60;0.93;;;;;;;6.14;100.00;98581.22;12208813;19;20089;-79
2023/12/22 05:38:07;;;;;;;7.05;0.73;;;;;;;6.12;100.00;98588.00;12209884;19;20031;-81
2023/12/22 05:42:09;;;;;;;2.10;0.77;;;;;;;6.12;100.00;98585.25;12191037;19;20007;-80
2023/12/22 05:46:11;;;;;;;1.97;1.30;;;;;;;6.05;100.00;98576.41;12209708;19;20002;-81
2023/12/22 05:50:13;;;;;;;3.90;0.70;;;;;;;6.07;100.00;98579.75;12212287;19;20037;-83
2023/12/22 05:54:16;;;;;;;2.17;0.60;;;;;;;6.10;100.00;98573.78;12187018;19;20031;-81
2023/12/22 05:58:18;;;;;;;5.78;0.88;;;;;;;6.11;100.00;98580.88;12210604;19;20080;-81
2023/12/22 06:02:21;;;;;;;3.13;0.77;;;;;;;6.12;100.00;98593.47;12209466;19;20388;-81
2023/12/22 06:06:23;;;;;;;3.60;0.88;;;;;;;6.18;100.00;98592.47;12186327;19;20031;-82
2023/12/22 06:10:25;;;;;;;4.53;0.90;;;;;;;6.22;100.00;98599.13;12209966;19;20010;-81
2023/12/22 06:14:26;;;;;;;2.08;0.77;;;;;;;6.21;100.00;98615.75;12205660;19;20251;-81
2023/12/22 06:18:28;;;;;;;5.93;1.30;;;;;;;6.22;100.00;98626.47;12185645;19;21421;-81
2023/12/22 06:22:30;;;;;;;2.58;0.90;;;;;;;6.20;100.00;98617.66;12206679;19;20015;-81
2023/12/22 06:26:32;;;;;;;3.60;0.55;;;;;;;6.21;100.00;98629.44;12184837;19;20006;-81
2023/12/22 06:30:35;;;;;;;1.33;0.85;;;;;;;6.15;100.00;98637.56;12209324;19;20545;-82
2023/12/22 06:34:37;;;;;;;4.18;1.17;;;;;;;6.10;100.00;98633.94;12207805;19;20922;-82
2023/12/22 06:38:39;;;;;;;4.72;1.02;;;;;;;6.09;100.00;98640.47;12185419;19;20354;-81
2023/12/22 06:42:40;;;;;;;3.78;1.08;;;;;;;6.12;100.00;98656.38;12207692;19;20011;-82
2023/12/22 06:46:42;;;;;;;6.30;0.98;;;;;;;6.09;100.00;98654.97;12213108;19;20596;-82
2023/12/22 06:50:44;;;;;;;3.07;1.03;;;;;;;6.05;100.00;98647.53;12193678;19;20022;-81
2023/12/22 06:54:48;;;;;;;4.68;0.70;;;;;;;5.99;100.00;98643.06;12229224;19;20002;-82
2023/12/22 06:58:52;;;;;;;3.30;0.95;;;;;;;5.94;100.00;98639.13;12264983;19;20006;-80
2023/12/22 07:02:57;;;;;;;4.93;1.10;;;;;;;5.96;100.00;98659.97;12211915;19;20014;-83
2023/12/22 07:07:00;;;;;;;4.18;1.08;;;;;;;6.02;100.00;98648.03;12265835;19;20006;-80
2023/12/22 07:11:02;;;;;;;;;;;;;;;6.04;100.00;98645.84;12232605;19;20010;-82
2023/12/22 07:15:06;;;;;;;6.50;1.08;;;;;;;6.16;100.00;98654.81;12179658;19;19907;-82
2023/12/22 07:19:08;;;;;;;6.18;1.48;;;;;;;6.28;100.00;98657.47;12206097;19;20007;-80
2023/12/22 07:23:11;;;;;;;3.40;1.02;;;;;;;6.38;100.00;98677.59;12201579;19;20018;-80
2023/12/22 07:27:14;;;;;;;5.68;1.58;;;;;;;6.48;100.00;98670.59;12186771;19;20067;-80
2023/12/22 07:31:17;;;;;;;2.42;1.00;;;;;;;6.56;100.00;98642.81;12203296;19;21227;-80
2023/12/22 07:35:19;;;;;;;4.15;1.20;;;;;;;6.65;100.00;98657.72;12203437;19;20096;-82
2023/12/22 07:39:22;;;;;;;5.07;1.67;;;;;;;6.68;100.00;98672.81;12183385;19;20094;-81
2023/12/22 07:43:24;;;;;;;;;;;;;;;6.73;100.00;98681.94;12205306;19;20010;-81
2023/12/22 07:47:27;;;;;;;4.70;1.33;;;;;;;6.78;100.00;98681.16;12200773;19;19986;-82
2023/12/22 07:51:28;;;;;;;6.60;1.58;;;;;;;6.87;100.00;98687.03;12181093;19;20006;-81
2023/12/22 07:55:30;;;;;;;9.65;2.28;;;;;;;6.93;100.00;98688.75;12200034;19;20015;-81
2023/12/22 07:59:32;;;;;;;11.00;1.90;;;;;;;7.04;100.00;98696.03;12185539;19;20031;-81
2023/12/22 08:03:34;;;;;;;6.47;1.25;;;;;;;7.19;100.00;98690.75;12208225;19;20939;-82
2023/12/22 08:07:36;;;;;;;7.10;1.50;;;;;;;7.23;100.00;98691.09;12227711;19;20006;-80
2023/12/22 08:11:38;;;;;;;4.20;1.20;;;;;;;7.32;100.00;98678.59;12206251;19;20021;-80
2023/12/22 08:15:41;;;;;;;9.82;1.33;;;;;;;7.39;100.00;98684.69;12227146;19;20792;-80
2023/12/22 08:19:43;;;;;;;;;;;;;;;7.39;100.00;98673.72;12205229;19;21603;-80
2023/12/22 08:23:48;;;;;;;4.75;1.42;;;;;;;7.43;100.00;98674.03;12177591;19;19911;-80
2023/12/22 08:27:57;;;;;;;4.38;1.00;;;;;;;7.45;100.00;98680.09;12203408;19;20014;-80
2023/12/22 08:32:00;;;;;;;5.85;0.90;;;;;;;7.53;100.00;98696.09;12204000;19;20711;-80
2023/12/22 08:36:02;;;;;;;7.53;1.50;;;;;;;7.58;100.00;98698.88;12177028;19;20006;-82
2023/12/22 08:40:05;;;;;;;5.97;1.00;;;;;;;7.44;100.00;98692.16;12201568;19;20018;-81
2023/12/22 08:44:08;;;;;;;2.83;0.82;;;;;;;7.28;100.00;98691.13;12200194;19;20014;-81
2023/12/22 08:48:10;;;;;;;4.18;0.82;;;;;;;7.22;100.00;98683.94;12188125;19;20438;-83
2023/12/22 08:52:13;;;;;;;2.45;0.55;;;;;;;7.15;100.00;98700.56;12211318;19;20010;-82
2023/12/22 08:56:16;;;;;;;9.07;0.90;;;;;;;7.06;100.00;98702.09;12211788;19;20497;-83
2023/12/22 09:00:18;;;;;;;3.80;0.90;;;;;;;7.03;100.00;98717.13;12191249;19;20007;-81
2023/12/22 09:04:22;;;;;;;3.17;0.70;;;;;;;7.04;100.00;98715.22;12207226;19;20006;-82
2023/12/22 09:08:24;;;;;;;4.35;1.23;;;;;;;7.03;100.00;98702.59;12206702;19;20082;-82
2023/12/22 09:12:26;;;;;;;8.98;1.42;;;;;;;7.05;100.00;98704.00;12187933;19;20015;-82
2023/12/22 09:16:28;;;;;;;9.40;1.10;;;;;;;7.03;100.00;98699.88;12207775;19;20018;-81
2023/12/22 09:20:30;;;;;;;2.83;0.90;;;;;;;7.04;100.00;98706.97;12200718;19;20026;-86
2023/12/22 09:24:35;;;;;;;6.28;1.00;;;;;;;7.12;100.00;98700.25;12205542;19;20014;-80
2023/12/22 09:28:36;;;;;;;3.15;0.80;;;;;;;7.17;100.00;98703.03;12208467;19;20007;-83
2023/12/22 09:32:38;;;;;;;5.15;1.00;;;;;;;7.21;100.00;98715.16;12186582;19;20010;-83
2023/12/22 09:36:40;;;;;;;5.50;1.43;;;;;;;7.18;100.00;98713.75;12199901;19;20017;-82
2023/12/22 09:40:42;;;;;;;3.28;1.33;;;;;;;7.17;100.00;98723.06;12207313;19;20017;-83
2023/12/22 09:44:48;;;;;;;5.78;1.85;;;;;;;7.24;100.00;98722.88;12182725;19;20010;-82
2023/12/22 09:48:52;;;;;;;3.00;1.20;;;;;;;7.33;100.00;98709.56;12208999;19;20022;-83
2023/12/22 09:52:54;;;;;;;3.47;1.13;;;;;;;7.38;100.00;98709.63;12207801;19;20011;-81
2023/12/22 09:56:57;;;;;;;7.57;1.23;;;;;;;7.38;100.00;98693.19;12189412;19;20010;-83
2023/12/22 10:01:02;;;;;;;5.63;1.52;;;;;;;7.38;100.00;98701.41;12209804;19;20014;-82
2023/12/22 10:05:04;;;;;;;9.95;1.90;;;;;;;7.36;100.00;98689.84;12203906;19;20037;-81
2023/12/22 10:09:08;;;;;;;9.67;2.40;;;;;;;7.36;100.00;98682.47;12192499;19;20010;-79
2023/12/22 10:13:11;;;;;;;5.93;2.05;;;;;;;7.43;100.00;98679.50;12207007;19;20016;-81
2023/12/22 10:17:14;;;;;;;;;;;;;;;7.42;100.00;98669.63;12206422;19;20011;-81
2023/12/22 10:21:16;;;;;;;12.80;2.63;;;;;;;7.49;100.00;98667.50;12179876;19;19915;-80
2023/12/22 10:25:22;;;;;;;13.98;3.28;;;;;;;7.57;100.00;98656.09;12202792;19;20014;-81
2023/12/22 10:29:24;;;;;;;16.00;2.70;;;;;;;7.60;100.00;98652.84;12208250;19;20015;-81
2023/12/22 10:33:26;;;;;;;17.65;2.67;;;;;;;7.68;100.00;98654.28;12188191;19;20011;-80
2023/12/22 10:37:28;;;;;;;8.68;2.45;;;;;;;7.77;100.00;98647.25;12207675;19;20386;-81
2023/12/22 10:41:31;;;;;;;6.72;1.55;;;;;;;7.76;100.00;98629.97;12198622;19;20086;-80
2023/12/22 10:45:33;;;;;;;11.50;2.72;;;;;;;7.82;100.00;98624.50;12201910;19;20527;-82
2023/12/22 10:49:36;;;;;;;13.77;2.58;;;;;;;7.88;100.00;98604.28;12209428;19;20061;-79
2023/12/22 10:53:42;;;;;;;12.48;3.13;;;;;;;8.01;100.00;98611.25;12188274;19;20013;-82
2023/12/22 10:57:47;;;;;;;11.73;2.10;;;;;;;8.08;100.00;98601.69;12205985;19;20014;-80
2023/12/22 11:01:51;;;;;;;13.35;3.00;;;;;;;8.13;100.00;98601.72;12210374;19;20015;-80
2023/12/22 11:05:56;;;;;;;17.08;3.08;;;;;;;8.22;100.00;98588.34;12185618;19;20006;-81
2023/12/22 11:10:03;;;;;;;11.38;2.33;;;;;;;8.28;100.00;98576.31;12213029;19;20044;-81
2023/12/22 11:14:07;;;;;;;12.63;2.00;;;;;;;8.36;100.00;98577.75;12210619;19;20328;-81
2023/12/22 11:18:09;;;;;;;13.35;2.33;;;;;;;8.50;100.00;98556.97;12190224;19;20011;-81
2023/12/22 11:22:13;;;;;;;9.95;2.25;;;;;;;8.58;100.00;98552.91;12210181;19;20013;-80
2023/12/22 11:26:16;;;;;;;8.02;1.90;;;;;;;8.58;100.00;98564.69;12211753;19;20092;-80
2023/12/22 11:30:20;;;;;;;9.88;2.47;;;;;;;8.68;100.00;98555.69;12195810;19;20022;-79
2023/12/22 11:34:23;;;;;;;10.40;2.20;;;;;;;8.73;100.00;98541.16;12237613;19;20385;-80
2023/12/22 11:38:25;;;;;;;12.18;2.70;;;;;;;8.78;100.00;98528.28;12235777;19;20354;-80
2023/12/22 11:42:36;;;;;;;9.38;2.13;;;;;;;8.79;100.00;98515.34;12211829;19;20010;-79
2023/12/22 11:46:38;;;;;;;10.77;1.90;;;;;;;8.84;100.00;98523.63;12211829;19;20027;-81
2023/12/22 11:50:42;;;;;;;10.38;2.95;;;;;;;8.85;100.00;98523.34;12182782;19;20031;-81
2023/12/22 11:54:50;;;;;;;11.68;2.67;;;;;;;8.88;100.00;98536.53;12203494;19;20015;-81
2023/12/22 11:58:54;;;;;;;10.68;1.80;;;;;;;8.90;100.00;98539.84;12204664;19;20010;-81
2023/12/22 12:02:56;;;;;;;8.90;1.75;;;;;;;8.79;100.00;98523.59;12185106;19;20011;-80
2023/12/22 12:06:58;;;;;;;5.50;1.50;;;;;;;8.69;100.00;98509.84;12206799;19;20007;-82
2023/12/22 12:11:03;;;;;;;9.25;1.52;;;;;;;8.70;100.00;98506.81;12206813;19;20359;-80
2023/12/22 12:15:10;;;;;;;11.18;2.17;;;;;;;8.69;100.00;98501.59;12185499;19;20007;-80
2023/12/22 12:19:12;;;;;;;6.60;1.60;;;;;;;8.67;100.00;98496.38;12203235;19;20102;-83
2023/12/22 12:23:17;;;;;;;6.93;1.77;;;;;;;8.69;100.00;98482.38;12188689;19;20035;-82
2023/12/22 12:27:20;;;;;;;9.45;1.88;;;;;;;8.64;100.00;98475.75;12190418;19;20011;-80
2023/12/22 12:31:35;;;;;;;13.48;1.92;;;;;;;8.70;100.00;98478.53;12219200;19;20018;-81
2023/12/22 12:35:38;;;;;;;7.38;1.98;;;;;;;8.71;100.00;98486.47;12191643;19;20026;-81
2023/12/22 12:39:48;;;;;;;8.43;1.88;;;;;;;8.71;100.00;98482.91;12207223;19;20039;-80
2023/12/22 12:43:51;;;;;;;10.15;2.15;;;;;;;8.71;100.00;98480.16;12199467;19;20002;-84
2023/12/22 12:48:01;;;;;;;7.88;2.47;;;;;;;8.66;100.00;98473.56;12177642;19;20007;-83
2023/12/22 12:52:06;;;;;;;10.18;3.10;;;;;;;8.63;100.00;98468.63;12201383;19;20026;-82
2023/12/22 12:56:14;;;;;;;8.25;2.47;;;;;;;8.62;100.00;98466.13;12208036;19;20022;-83
2023/12/22 13:00:29;;;;;;;8.75;2.00;;;;;;;8.65;100.00;98460.09;12180430;19;20283;-82
2023/12/22 13:04:40;;;;;;;12.77;2.75;;;;;;;8.64;100.00;98459.28;12194458;19;20042;-82
2023/12/22 13:08:52;;;;;;;13.10;2.00;;;;;;;8.66;100.00;98462.59;12180524;19;20006;-83
2023/12/22 13:12:54;;;;;;;9.23;1.85;;;;;;;8.79;100.00;98461.25;12200034;19;20002;-82
2023/12/22 13:16:58;;;;;;;5.90;1.20;;;;;;;8.88;100.00;98448.63;12200583;19;20027;-83
2023/12/22 13:21:00;;;;;;;4.40;1.20;;;;;;;8.98;100.00;98464.28;12177023;19;20013;-82
2023/12/22 13:25:02;;;;;;;4.18;0.77;;;;;;;9.09;100.00;98460.47;12199391;19;20069;-81
2023/12/22 13:29:05;;;;;;;1.97;0.60;;;;;;;9.20;100.00;98466.81;12203374;19;20022;-83
2023/12/22 13:33:08;;;;;;;4.38;0.77;;;;;;;9.41;100.00;98461.31;12191749;19;20645;-82
2023/12/22 13:37:10;;;;;;;;;;;;;;;9.48;100.00;98473.66;12232116;19;20019;-80
2023/12/22 13:41:12;;;;;;;1.42;0.30;;;;;;;9.58;100.00;98475.63;12216222;19;20012;-82
2023/12/22 13:45:14;;;;;;;2.80;0.90;;;;;;;9.62;100.00;98473.13;12188183;19;20026;-81
2023/12/22 13:49:16;;;;;;;3.77;0.50;;;;;;;9.72;100.00;98468.44;12210227;19;20011;-80
2023/12/22 13:53:18;;;;;;;0.73;0.50;;;;;;;9.66;100.00;98469.53;12209266;19;20026;-81
2023/12/22 13:57:21;;;;;;;1.63;0.33;;;;;;;9.72;100.00;98486.88;12190868;19;20031;-81
2023/12/22 14:01:27;;;;;;;1.80;0.30;;;;;;;9.77;100.00;98497.88;12210992;19;20130;-81
2023/12/22 14:05:30;;;;;;;0.88;0.47;;;;;;;9.82;100.00;98493.19;12206586;19;20408;-80
2023/12/22 14:09:38;;;;;;;5.50;0.47;;;;;;;9.87;100.00;98486.84;12187560;19;20069;-80
2023/12/22 14:13:40;;;;;;;2.67;0.70;;;;;;;9.92;100.00;98483.28;12208865;19;20013;-81
2023/12/22 14:17:43;;;;;;;3.53;0.63;;;;;;;9.88;100.00;98491.25;12189564;19;20023;-81
2023/12/22 14:21:45;;;;;;;1.47;0.60;;;;;;;9.95;100.00;98493.72;12208449;19;20006;-80
2023/12/22 14:25:47;;;;;;;1.50;0.55;;;;;;;9.96;100.00;98493.41;12209730;19;20275;-82
2023/12/22 14:29:49;;;;;;;2.83;0.60;;;;;;;10.00;100.00;98491.78;12169374;19;20059;-82
2023/12/22 14:33:50;;;;;;;1.27;0.50;;;;;;;10.06;100.00;98487.09;12209855;19;20018;-80
2023/12/22 14:37:52;;;;;;;0.80;0.50;;;;;;;10.09;100.00;98482.97;12208285;19;20035;-80
2023/12/22 14:41:55;;;;;;;2.90;0.88;;;;;;;10.10;100.00;98473.59;12188326;19;20010;-81
2023/12/22 14:45:57;;;;;;;1.00;0.60;;;;;;;10.18;100.00;98468.34;12212244;19;20009;-81
2023/12/22 14:50:03;;;;;;;1.83;0.67;;;;;;;10.27;100.00;98479.63;12210694;19;20023;-84
2023/12/22 14:54:06;;;;;;;9.02;5.25;;;;;;;10.25;100.00;98499.16;12186600;19;20104;-82
2023/12/22 14:58:10;;;;;;;4.47;1.25;;;;;;;10.30;100.00;98490.09;12209320;19;20011;-81
2023/12/22 15:02:12;;;;;;;1.55;0.90;;;;;;;10.32;100.00;98501.66;12188406;19;20014;-80
2023/12/22 15:06:13;;;;;;;0.70;0.57;;;;;;;10.27;100.00;98494.22;12206028;19;20003;-81
2023/12/22 15:10:15;;;;;;;1.08;0.65;;;;;;;10.28;100.00;98508.81;12210534;19;20018;-84
2023/12/22 15:14:17;;;;;;;3.00;0.55;;;;;;;10.35;100.00;98512.09;12183834;19;20062;-81
2023/12/22 15:18:19;;;;;;;1.30;0.57;;;;;;;10.40;100.00;98525.03;12207112;19;20513;-80
2023/12/22 15:22:22;;;;;;;1.48;0.40;;;;;;;10.42;100.00;98542.09;12206084;19;20027;-80
2023/12/22 15:26:27;;;;;;;4.38;0.50;;;;;;;10.40;100.00;98534.09;12179545;19;20047;-81
2023/12/22 15:30:30;;;;;;;0.40;0.40;;;;;;;10.45;100.00;98542.34;12207367;19;19998;-80
2023/12/22 15:34:32;;;;;;;1.45;0.40;;;;;;;10.39;100.00;98548.16;12218020;19;20122;-80
2023/12/22 15:38:34;;;;;;;0.63;0.22;;;;;;;10.38;100.00;98554.75;12236931;19;20006;-79
2023/12/22 15:42:36;;;;;;;0.55;0.40;;;;;;;10.39;100.00;98560.00;12250123;19;20030;-80
2023/12/22 15:46:38;;;;;;;0.90;0.30;;;;;;;10.43;100.00;98554.75;12240373;19;20006;-82
2023/12/22 15:50:40;;;;;;;0.30;0.30;;;;;;;10.46;100.00;98571.53;12188316;19;20017;-82
2023/12/22 15:54:42;;;;;;;0.52;0.30;;;;;;;10.45;100.00;98566.31;12210537;19;20021;-81
2023/12/22 15:58:44;;;;;;;0.30;0.30;;;;;;;10.39;100.00;98564.69;12210467;19;20171;-81
2023/12/22 16:02:46;;;;;;;2.28;0.52;;;;;;;10.39;100.00;98565.50;12193842;19;20023;-81
2023/12/22 16:06:48;;;;;;;2.95;0.50;;;;;;;10.36;100.00;98577.06;12208894;19;20799;-82
2023/12/22 16:10:50;;;;;;;2.38;0.63;;;;;;;10.40;100.00;98572.66;12212115;19;20002;-81
2023/12/22 16:14:54;;;;;;;3.88;0.70;;;;;;;10.42;100.00;98575.97;12188224;19;20015;-82
2023/12/22 16:18:57;;;;;;;0.95;0.50;;;;;;;10.41;100.00;98577.06;12209585;19;20006;-82
2023/12/22 16:22:58;;;;;;;;;;;;;;;10.42;100.00;98589.72;12210875;19;20031;-83
2023/12/22 16:27:01;;;;;;;0.47;0.47;;;;;;;10.44;100.00;98590.28;12183532;19;19914;-82
2023/12/22 16:31:03;;;;;;;1.48;0.63;;;;;;;10.34;100.00;98590.28;12207346;19;20006;-79
2023/12/22 16:35:05;;;;;;;1.80;0.70;;;;;;;10.22;100.00;98582.28;12192869;19;20387;-79
2023/12/22 16:39:07;;;;;;;0.90;0.60;;;;;;;10.22;100.00;98586.97;12203116;19;20013;-80
2023/12/22 16:43:09;;;;;;;0.95;0.50;;;;;;;10.24;100.00;98579.28;12204444;19;20014;-81
2023/12/22 16:47:11;;;;;;;0.80;0.60;;;;;;;10.29;100.00;98575.69;12182535;19;20025;-81
2023/12/22 16:51:14;;;;;;;1.80;1.00;;;;;;;10.40;100.00;98578.16;12202171;19;20010;-82
2023/12/22 16:55:17;;;;;;;1.00;0.40;;;;;;;10.39;100.00;98579.28;12203941;19;20003;-84
2023/12/22 16:59:19;;;;;;;1.15;0.47;;;;;;;10.42;100.00;98578.72;12180717;19;20014;-81
2023/12/22 17:03:21;;;;;;;2.28;0.70;;;;;;;10.42;100.00;98583.41;12201965;19;20011;-81
2023/12/22 17:07:23;;;;;;;0.67;0.60;;;;;;;10.45;100.00;98597.44;12210387;19;20104;-80
2023/12/22 17:11:27;;;;;;;0.80;0.50;;;;;;;10.45;100.00;98599.38;12190668;19;20236;-82
2023/12/22 17:15:29;;;;;;;0.95;0.40;;;;;;;10.39;100.00;98600.50;12210123;19;20010;-81
2023/12/22 17:19:30;;;;;;;0.35;0.35;;;;;;;10.30;100.00;98593.91;12208824;19;20033;-81
2023/12/22 17:23:32;;;;;;;0.93;0.40;;;;;;;10.18;100.00;98611.50;12190350;19;20015;-81
2023/12/22 17:27:34;;;;;;;1.08;0.57;;;;;;;10.13;100.00;98622.50;12202531;19;20003;-82
2023/12/22 17:31:36;;;;;;;1.95;1.40;;;;;;;10.00;100.00;98631.31;12209897;19;20218;-81
2023/12/22 17:35:38;;;;;;;4.15;2.78;;;;;;;9.79;100.00;98644.25;12185192;19;20010;-82
2023/12/22 17:39:39;;;;;;;1.98;1.23;;;;;;;9.62;100.00;98643.66;12217826;19;20010;-81
2023/12/22 17:43:41;;;;;;;1.63;0.60;;;;;;;9.57;100.00;98637.03;12214596;19;20011;-80
2023/12/22 17:47:43;;;;;;;0.93;0.55;;;;;;;9.52;100.00;98648.03;12194330;19;20018;-83
2023/12/22 17:51:45;;;;;;;1.13;0.65;;;;;;;9.48;100.00;98644.16;12210023;19;20024;-83
2023/12/22 17:55:46;;;;;;;1.30;0.70;;;;;;;9.48;100.00;98655.16;12211110;19;20018;-80
2023/12/22 17:59:48;;;;;;;2.15;0.80;;;;;;;9.48;100.00;98655.16;12189406;19;20022;-81
2023/12/22 18:03:53;;;;;;;1.15;0.40;;;;;;;9.49;100.00;98634.84;12213252;19;20010;-82
2023/12/22 18:07:56;;;;;;;1.13;0.70;;;;;;;9.55;100.00;98639.25;12249780;19;20053;-82
2023/12/22 18:11:58;;;;;;;2.93;0.50;;;;;;;9.53;100.00;98662.59;12228534;19;20007;-79
2023/12/22 18:15:59;;;;;;;0.77;0.43;;;;;;;9.58;100.00;98665.38;12220026;19;20255;-81
2023/12/22 18:20:02;;;;;;;0.40;0.40;;;;;;;9.55;100.00;98680.50;12219321;19;20003;-80
2023/12/22 18:24:04;;;;;;;0.43;0.40;;;;;;;9.60;100.00;98674.16;12198015;19;20002;-82
2023/12/22 18:28:07;;;;;;;0.70;0.50;;;;;;;9.61;100.00;98697.00;12217445;19;20035;-81
2023/12/22 18:32:09;;;;;;;1.75;0.47;;;;;;;9.48;100.00;98710.16;12191554;19;20007;-81
2023/12/22 18:36:11;;;;;;;0.52;0.47;;;;;;;9.37;100.00;98711.22;12213041;19;20091;-82
2023/12/22 18:40:13;;;;;;;4.43;2.35;;;;;;;9.34;100.00;98706.28;12226159;19;20034;-81
2023/12/22 18:44:15;;;;;;;3.03;2.30;;;;;;;9.38;100.00;98723.88;12192536;19;20019;-80
2023/12/22 18:48:17;;;;;;;3.80;0.80;;;;;;;9.33;100.00;98723.84;12216487;19;20011;-81